Time;durP1;ratioP1;P1;durP2;ratioP2;P2;SDS_P1;SDS_P2;PMS_P1;PMS_P2;Temp;Humidity;BMP_temperature;BMP_pressure;BME280_temperature;BME280_humidity;BME280_pressure;Samples;Min_cycle;Max_cycle;Signal;HPM_P1;HPM_P2
2023/01/16 00:00:07;;;;;;;2.57;2.37;;;5.20;99.90;;;;;;5035208;28;20228;-90
2023/01/16 00:02:32;;;;;;;1.13;1.13;;;5.20;99.90;;;;;;5057949;28;20237;-92
2023/01/16 00:04:58;;;;;;;1.27;1.17;;;5.10;99.90;;;;;;5040871;28;20761;-92
2023/01/16 00:07:24;;;;;;;1.57;1.47;;;5.10;99.90;;;;;;5053594;28;20185;-92
2023/01/16 00:09:50;;;;;;;2.27;2.17;;;5.10;99.90;;;;;;5039515;28;20218;-91
2023/01/16 00:12:16;;;;;;;1.23;1.23;;;5.10;99.90;;;;;;5038337;28;20214;-89
2023/01/16 00:14:41;;;;;;;1.13;1.13;;;5.10;99.90;;;;;;5039057;28;20232;-91
2023/01/16 00:17:07;;;;;;;1.57;1.47;;;5.00;99.90;;;;;;5025956;28;20217;-90
2023/01/16 00:19:33;;;;;;;0.80;0.80;;;4.90;99.90;;;;;;5053195;28;20620;-90
2023/01/16 00:21:58;;;;;;;0.80;0.80;;;4.90;99.90;;;;;;5058221;28;20328;-91
2023/01/16 00:24:24;;;;;;;1.00;1.00;;;4.80;99.90;;;;;;5040257;28;20214;-93
2023/01/16 00:26:53;;;;;;;1.33;1.03;;;4.80;99.90;;;;;;5056007;28;20221;-91
2023/01/16 00:29:19;;;;;;;3.23;1.77;;;4.80;99.90;;;;;;5056079;28;20309;-93
2023/01/16 00:31:45;;;;;;;0.80;0.80;;;4.70;99.90;;;;;;5054588;28;20299;-89
2023/01/16 00:34:13;;;;;;;2.87;1.17;;;4.70;99.90;;;;;;5040665;28;20622;-91
2023/01/16 00:36:39;;;;;;;1.43;1.33;;;4.60;99.90;;;;;;5023278;28;20272;-90
2023/01/16 00:39:05;;;;;;;2.30;1.13;;;4.60;99.90;;;;;;5042550;28;20676;-90
2023/01/16 00:41:31;;;;;;;1.83;1.30;;;4.60;99.90;;;;;;5054470;28;20280;-90
2023/01/16 00:43:58;;;;;;;1.10;0.97;;;4.60;99.90;;;;;;5053314;28;20772;-91
2023/01/16 00:46:29;;;;;;;1.20;1.20;;;4.70;99.90;;;;;;5040459;28;20208;-90
2023/01/16 00:48:56;;;;;;;0.90;0.90;;;4.70;99.90;;;;;;5053197;28;20206;-90
2023/01/16 00:51:22;;;;;;;1.10;1.10;;;4.80;99.90;;;;;;5037930;28;20301;-91
2023/01/16 00:53:48;;;;;;;1.77;1.63;;;4.80;99.90;;;;;;5057504;28;20352;-90
2023/01/16 00:56:14;;;;;;;1.63;1.53;;;4.90;99.90;;;;;;5053760;28;20259;-89
2023/01/16 00:58:39;;;;;;;1.63;1.53;;;4.90;99.90;;;;;;5053062;28;20188;-88
2023/01/16 01:01:05;;;;;;;0.93;0.93;;;4.90;99.90;;;;;;5042031;28;20221;-90
2023/01/16 01:03:31;;;;;;;1.43;1.17;;;4.90;99.90;;;;;;5055374;28;20210;-91
2023/01/16 01:05:57;;;;;;;1.97;1.77;;;4.90;99.90;;;;;;5055254;28;20221;-90
2023/01/16 01:08:23;;;;;;;1.80;0.87;;;4.90;99.90;;;;;;5051763;28;20265;-89
2023/01/16 01:10:49;;;;;;;1.10;1.10;;;4.80;99.90;;;;;;5053300;28;20586;-88
2023/01/16 01:13:15;;;;;;;1.50;1.07;;;4.80;99.90;;;;;;5024462;28;20300;-88
2023/01/16 01:15:41;;;;;;;1.07;1.00;;;4.80;99.90;;;;;;5054010;28;20236;-90
2023/01/16 01:18:07;;;;;;;2.90;1.87;;;4.80;99.90;;;;;;5055417;28;20221;-91
2023/01/16 01:20:32;;;;;;;1.17;1.17;;;4.80;99.90;;;;;;5054044;28;20259;-89
2023/01/16 01:22:58;;;;;;;0.77;0.77;;;4.80;99.90;;;;;;5054306;28;20213;-89
2023/01/16 01:25:24;;;;;;;0.80;0.80;;;4.90;99.90;;;;;;5052885;28;20200;-90
2023/01/16 01:27:50;;;;;;;1.10;1.10;;;4.90;99.90;;;;;;5057218;28;20221;-89
2023/01/16 01:30:16;;;;;;;0.90;0.90;;;5.00;99.90;;;;;;5051772;28;20268;-91
2023/01/16 01:32:42;;;;;;;2.13;2.03;;;5.00;99.90;;;;;;5055879;28;20620;-89
2023/01/16 01:35:09;;;;;;;0.60;0.60;;;4.90;99.90;;;;;;5037726;28;20247;-92
2023/01/16 01:37:35;;;;;;;0.50;0.50;;;4.90;99.90;;;;;;5056891;28;20244;-89
2023/01/16 01:40:04;;;;;;;1.10;1.10;;;4.90;99.90;;;;;;5052510;28;20200;-89
2023/01/16 01:42:47;;;;;;;2.47;2.10;;;4.90;99.90;;;;;;5053283;28;20299;-89
2023/01/16 01:45:15;;;;;;;0.80;0.80;;;4.80;99.90;;;;;;5053141;28;20345;-93
2023/01/16 01:47:51;;;;;;;1.93;1.83;;;4.80;99.90;;;;;;5054957;28;20812;-92
2023/01/16 01:50:36;;;;;;;0.70;0.70;;;4.80;99.90;;;;;;5057111;28;20240;-92
2023/01/16 01:53:10;;;;;;;1.13;0.77;;;4.80;99.90;;;;;;5050715;28;20214;-92
2023/01/16 01:55:37;;;;;;;1.37;1.37;;;4.90;99.90;;;;;;5051472;28;20212;-90
2023/01/16 01:58:04;;;;;;;0.73;0.73;;;4.90;99.90;;;;;;5053180;28;20182;-89
2023/01/16 02:00:30;;;;;;;1.93;1.83;;;4.90;99.90;;;;;;5052763;28;20240;-90
2023/01/16 02:03:08;;;;;;;1.63;1.53;;;5.00;99.90;;;;;;5053639;28;20224;-88
2023/01/16 02:05:49;;;;;;;3.10;2.83;;;5.00;99.90;;;;;;5054840;28;20586;-88
2023/01/16 02:08:21;;;;;;;0.50;0.50;;;5.10;99.90;;;;;;5053230;28;20667;-90
2023/01/16 02:10:59;;;;;;;2.57;2.37;;;5.10;99.90;;;;;;5053133;28;20185;-89
2023/01/16 02:13:25;;;;;;;2.47;1.33;;;5.20;99.90;;;;;;5056380;28;20188;-91
2023/01/16 02:21:33;;;;;;;4.73;2.20;;;5.20;99.90;;;;;;5054788;28;20687;-90
2023/01/16 02:24:19;;;;;;;2.53;1.23;;;5.20;99.90;;;;;;5051091;28;20209;-91
2023/01/16 02:27:03;;;;;;;1.40;1.33;;;5.20;99.90;;;;;;5027771;28;20279;-91
2023/01/16 02:29:53;;;;;;;5.70;1.97;;;5.20;99.90;;;;;;5055254;28;20217;-89
2023/01/16 02:32:50;;;;;;;2.37;2.10;;;5.20;99.90;;;;;;5053574;28;20641;-89
2023/01/16 02:35:32;;;;;;;1.90;1.80;;;5.20;99.90;;;;;;5051297;28;20228;-94
2023/01/16 02:38:08;;;;;;;1.30;1.23;;;5.20;99.90;;;;;;5055032;28;20214;-90
2023/01/16 02:41:09;;;;;;;2.43;2.23;;;5.20;99.90;;;;;;5056148;28;20197;-93
2023/01/16 02:43:52;;;;;;;1.27;1.17;;;5.20;99.90;;;;;;5063331;28;20252;-91
2023/01/16 02:46:32;;;;;;;1.60;1.50;;;5.20;99.90;;;;;;5061823;28;20189;-90
2023/01/16 02:49:20;;;;;;;0.80;0.80;;;5.20;99.90;;;;;;5058462;28;20773;-94
2023/01/16 02:52:01;;;;;;;1.13;1.07;;;5.10;99.90;;;;;;5052318;28;20232;-93
2023/01/16 02:54:33;;;;;;;0.83;0.83;;;5.10;99.90;;;;;;5054179;28;20229;-93
2023/01/16 02:57:12;;;;;;;0.87;0.87;;;5.10;99.90;;;;;;5055273;28;20212;-92
2023/01/16 02:59:40;;;;;;;3.13;1.87;;;5.10;99.90;;;;;;5053755;28;20582;-90
2023/01/16 03:02:06;;;;;;;1.10;1.00;;;5.00;99.90;;;;;;5051707;28;20217;-93
2023/01/16 03:04:47;;;;;;;1.13;1.03;;;5.00;99.90;;;;;;5047123;28;20201;-92
2023/01/16 03:07:22;;;;;;;1.73;1.63;;;5.00;99.90;;;;;;5056464;28;20192;-91
2023/01/16 03:10:09;;;;;;;3.40;1.90;;;4.90;99.90;;;;;;5055426;28;20208;-92
2023/01/16 03:13:08;;;;;;;0.83;0.83;;;5.00;99.90;;;;;;5059189;28;20285;-92
2023/01/16 03:15:36;;;;;;;0.90;0.90;;;4.90;99.90;;;;;;5056343;28;20235;-91
2023/01/16 03:18:38;;;;;;;1.50;1.47;;;4.90;99.90;;;;;;5058099;28;20223;-91
2023/01/16 03:21:24;;;;;;;0.80;0.80;;;4.80;99.90;;;;;;5055618;28;20228;-90
2023/01/16 03:24:25;;;;;;;2.37;1.17;;;4.80;99.90;;;;;;5053711;28;20206;-92
2023/01/16 03:27:05;;;;;;;1.33;0.63;;;4.70;99.90;;;;;;5058042;28;20253;-91
2023/01/16 03:29:50;;;;;;;0.70;0.70;;;4.60;99.90;;;;;;5057992;28;20283;-91
2023/01/16 03:32:34;;;;;;;0.60;0.60;;;4.60;99.90;;;;;;5054173;28;20221;-93
2023/01/16 03:35:20;;;;;;;1.47;0.90;;;4.60;99.90;;;;;;5058203;28;20213;-92
2023/01/16 03:38:03;;;;;;;2.93;2.73;;;4.60;99.90;;;;;;5052636;28;20182;-91
2023/01/16 03:40:34;;;;;;;1.03;0.80;;;4.60;99.90;;;;;;5054186;28;20193;-91
2023/01/16 03:43:17;;;;;;;2.20;1.50;;;4.60;99.90;;;;;;5058714;28;20572;-92
2023/01/16 03:45:45;;;;;;;0.70;0.70;;;4.70;99.90;;;;;;5053992;28;20230;-93
2023/01/16 03:48:24;;;;;;;1.33;1.33;;;4.70;99.90;;;;;;5057689;28;20340;-93
2023/01/16 03:50:56;;;;;;;1.17;1.17;;;4.60;99.90;;;;;;5056797;28;20279;-93
2023/01/16 03:53:26;;;;;;;1.67;1.27;;;4.60;99.90;;;;;;5063250;28;20238;-91
2023/01/16 03:56:21;;;;;;;1.13;0.70;;;4.60;99.90;;;;;;5055149;28;20217;-92
2023/01/16 03:58:48;;;;;;;3.57;2.70;;;4.60;99.90;;;;;;5061512;28;20669;-94
2023/01/16 04:01:27;;;;;;;1.43;1.33;;;4.50;99.90;;;;;;5039212;28;20282;-91
2023/01/16 04:04:00;;;;;;;1.50;1.40;;;4.60;99.90;;;;;;5056093;28;20220;-90
2023/01/16 04:06:40;;;;;;;2.80;2.60;;;4.60;99.90;;;;;;5055442;28;20681;-93
2023/01/16 04:09:13;;;;;;;2.17;1.27;;;4.50;99.90;;;;;;5051285;28;20222;-90
2023/01/16 04:11:40;;;;;;;2.33;1.80;;;4.50;99.90;;;;;;5059247;28;20217;-91
2023/01/16 04:14:09;;;;;;;1.23;1.13;;;4.60;99.90;;;;;;5055024;28;20229;-93
2023/01/16 04:16:36;;;;;;;2.03;1.13;;;4.60;99.90;;;;;;5058906;28;20319;-92
2023/01/16 04:19:03;;;;;;;1.63;1.37;;;4.60;99.90;;;;;;5047448;28;20197;-90
2023/01/16 04:21:31;;;;;;;1.17;1.17;;;4.70;99.90;;;;;;5024583;28;20217;-92
2023/01/16 04:23:59;;;;;;;2.03;1.30;;;4.70;99.90;;;;;;5040973;28;20221;-92
2023/01/16 04:26:25;;;;;;;1.03;1.03;;;4.70;99.90;;;;;;5023899;28;20677;-92
2023/01/16 04:28:54;;;;;;;0.90;0.90;;;4.70;99.90;;;;;;5056318;28;20221;-95
2023/01/16 04:31:22;;;;;;;1.03;1.03;;;4.70;99.90;;;;;;5055417;28;20197;-93
2023/01/16 04:33:48;;;;;;;2.47;1.87;;;4.80;99.90;;;;;;5054686;28;20217;-92
2023/01/16 04:36:14;;;;;;;2.97;2.77;;;4.80;99.90;;;;;;5030158;28;20737;-93
2023/01/16 04:38:39;;;;;;;0.97;0.97;;;4.80;99.90;;;;;;5034602;28;20229;-92
2023/01/16 04:41:05;;;;;;;0.80;0.80;;;4.80;99.90;;;;;;5038095;28;20249;-92
2023/01/16 04:43:31;;;;;;;2.37;2.27;;;4.90;99.90;;;;;;5041391;28;20185;-93
2023/01/16 04:45:56;;;;;;;2.13;2.03;;;4.90;99.90;;;;;;5056613;28;20201;-92
2023/01/16 04:48:22;;;;;;;1.43;1.30;;;4.90;99.90;;;;;;5039039;28;20221;-92
2023/01/16 04:50:49;;;;;;;0.87;0.87;;;4.90;99.90;;;;;;5037530;28;20375;-93
2023/01/16 04:53:15;;;;;;;1.90;0.73;;;4.90;99.90;;;;;;5054000;28;20222;-91
2023/01/16 04:55:41;;;;;;;4.20;3.23;;;5.00;99.90;;;;;;5038752;28;20208;-92
2023/01/16 04:58:06;;;;;;;2.87;1.47;;;4.90;99.90;;;;;;5036776;28;20185;-92
2023/01/16 05:00:32;;;;;;;2.73;2.53;;;4.90;99.90;;;;;;5039422;28;20216;-92
2023/01/16 05:02:58;;;;;;;2.73;2.10;;;4.90;99.90;;;;;;5053724;28;20236;-93
2023/01/16 05:05:25;;;;;;;2.30;2.20;;;4.90;99.90;;;;;;5052364;28;20225;-92
2023/01/16 05:08:15;;;;;;;1.33;1.10;;;4.80;99.90;;;;;;5035606;28;20697;-92
2023/01/16 05:10:36;;;;;;;2.03;1.93;;;4.80;99.90;;;;;;5051497;28;20216;-92
2023/01/16 05:13:02;;;;;;;2.00;1.90;;;4.80;99.90;;;;;;5039550;28;20231;-90
2023/01/16 05:15:28;;;;;;;2.53;2.33;;;4.80;99.90;;;;;;5055477;28;20620;-93
2023/01/16 05:17:54;;;;;;;1.13;1.13;;;4.80;99.90;;;;;;5036144;28;20197;-93
2023/01/16 05:20:20;;;;;;;1.03;1.03;;;4.70;99.90;;;;;;5054422;28;20266;-92
2023/01/16 05:22:47;;;;;;;3.80;3.53;;;4.70;99.90;;;;;;5060118;28;20986;-90
2023/01/16 05:25:13;;;;;;;15.63;3.37;;;4.60;99.90;;;;;;5053324;28;20186;-90
2023/01/16 05:27:39;;;;;;;0.93;0.93;;;4.60;99.90;;;;;;5021411;28;20247;-90
2023/01/16 05:30:05;;;;;;;1.97;1.50;;;4.50;99.90;;;;;;5038781;28;20216;-92
2023/01/16 05:32:31;;;;;;;2.43;2.23;;;4.60;99.90;;;;;;5040935;28;20311;-92
2023/01/16 05:35:00;;;;;;;2.83;1.03;;;4.50;99.90;;;;;;5058343;28;20304;-93
2023/01/16 05:37:26;;;;;;;1.27;1.13;;;4.40;99.90;;;;;;5040099;28;20200;-92
2023/01/16 05:39:52;;;;;;;2.47;1.77;;;4.40;99.90;;;;;;5053637;28;20209;-91
2023/01/16 05:42:24;;;;;;;2.53;2.30;;;4.40;99.90;;;;;;5037991;28;20339;-91
2023/01/16 05:44:51;;;;;;;1.37;1.17;;;4.40;99.90;;;;;;5054869;28;20492;-93
2023/01/16 05:47:21;;;;;;;2.37;2.17;;;4.40;99.90;;;;;;5039946;28;20270;-93
2023/01/16 05:49:47;;;;;;;2.80;1.23;;;4.30;99.90;;;;;;5055122;28;20205;-93
2023/01/16 05:52:13;;;;;;;3.30;2.10;;;4.30;99.90;;;;;;5040449;28;20229;-91
2023/01/16 05:54:39;;;;;;;2.27;2.07;;;4.40;99.90;;;;;;5022891;28;20274;-93
2023/01/16 05:57:05;;;;;;;1.27;1.17;;;4.40;99.90;;;;;;5040561;28;20218;-91
2023/01/16 05:59:30;;;;;;;7.27;1.77;;;4.40;99.90;;;;;;5060275;28;20213;-93
2023/01/16 06:01:56;;;;;;;6.33;2.27;;;4.40;99.90;;;;;;5056432;28;20228;-91
2023/01/16 06:04:23;;;;;;;5.57;2.83;;;4.50;99.90;;;;;;5024613;28;20188;-92
2023/01/16 06:06:49;;;;;;;1.27;1.20;;;4.60;99.90;;;;;;5059492;28;20235;-91
2023/01/16 06:09:15;;;;;;;5.07;4.70;;;4.60;99.90;;;;;;5041264;28;20213;-90
2023/01/16 06:11:41;;;;;;;3.50;2.27;;;4.60;99.90;;;;;;5040441;28;20218;-91
2023/01/16 06:14:06;;;;;;;3.97;2.77;;;4.60;99.90;;;;;;5060417;28;20225;-91
2023/01/16 06:16:33;;;;;;;1.30;1.23;;;4.70;99.90;;;;;;5060640;28;20641;-91
2023/01/16 06:18:59;;;;;;;2.93;2.73;;;4.70;99.90;;;;;;5053010;28;20217;-91
2023/01/16 06:21:25;;;;;;;15.30;3.00;;;4.70;99.90;;;;;;5062520;28;20217;-91
2023/01/16 06:23:51;;;;;;;1.40;1.33;;;4.70;99.90;;;;;;5039513;28;20599;-91
2023/01/16 06:26:17;;;;;;;11.00;2.03;;;4.70;99.90;;;;;;5023224;28;20290;-91
2023/01/16 06:28:43;;;;;;;1.33;1.23;;;4.70;99.90;;;;;;5038617;28;20186;-92
2023/01/16 06:31:08;;;;;;;2.73;1.57;;;4.70;99.90;;;;;;5056650;28;20185;-92
2023/01/16 06:33:35;;;;;;;3.07;1.83;;;4.70;99.90;;;;;;5057133;28;20230;-91
2023/01/16 06:36:00;;;;;;;2.53;2.33;;;4.70;99.90;;;;;;5021913;28;20237;-89
2023/01/16 06:38:26;;;;;;;2.73;1.60;;;4.70;99.90;;;;;;5052581;28;20308;-91
2023/01/16 06:40:55;;;;;;;5.83;3.13;;;4.70;99.90;;;;;;5056122;28;20240;-93
2023/01/16 06:43:28;;;;;;;2.90;2.73;;;4.70;99.90;;;;;;5028105;28;20805;-91
2023/01/16 06:45:54;;;;;;;1.63;1.60;;;4.70;99.90;;;;;;5060040;28;20228;-91
2023/01/16 06:48:20;;;;;;;4.03;2.67;;;4.70;99.90;;;;;;5059112;28;20222;-93
2023/01/16 06:50:46;;;;;;;3.43;2.93;;;4.70;99.90;;;;;;5026442;28;20728;-94
2023/01/16 06:53:12;;;;;;;7.40;2.60;;;4.70;99.90;;;;;;5065993;28;20206;-91
2023/01/16 06:55:39;;;;;;;3.50;2.57;;;4.70;99.90;;;;;;5058770;28;20184;-91
2023/01/16 06:58:09;;;;;;;1.37;1.37;;;4.70;99.90;;;;;;5059457;28;20184;-94
2023/01/16 07:00:35;;;;;;;2.27;2.17;;;4.60;99.90;;;;;;5064521;28;20274;-92
2023/01/16 07:03:01;;;;;;;3.87;2.13;;;4.60;99.90;;;;;;5043842;28;20229;-93
2023/01/16 07:05:28;;;;;;;6.63;2.50;;;4.50;99.90;;;;;;5059753;28;20757;-92
2023/01/16 07:07:54;;;;;;;2.47;2.27;;;4.50;99.90;;;;;;5044181;28;20716;-92
2023/01/16 07:10:21;;;;;;;1.43;1.33;;;4.50;99.90;;;;;;5058143;28;20181;-92
2023/01/16 07:12:48;;;;;;;1.07;1.07;;;4.40;99.90;;;;;;5040513;28;20681;-90
2023/01/16 07:23:44;;;;;;;5.23;2.53;;;4.20;99.90;;;;;;5059186;28;20275;-92
2023/01/16 07:26:12;;;;;;;8.90;3.03;;;4.20;99.90;;;;;;5060085;28;20275;-90
2023/01/16 07:28:39;;;;;;;1.73;1.17;;;4.10;99.90;;;;;;5057316;28;20182;-92
2023/01/16 07:31:06;;;;;;;3.83;2.60;;;4.10;99.90;;;;;;5059070;28;20197;-93
2023/01/16 07:33:35;;;;;;;1.20;1.20;;;4.10;99.90;;;;;;5045892;28;20224;-93
2023/01/16 07:36:01;;;;;;;2.10;1.93;;;4.10;99.90;;;;;;5026478;28;20633;-93
2023/01/16 07:38:27;;;;;;;1.33;1.23;;;4.10;99.90;;;;;;5027611;28;20243;-93
2023/01/16 07:40:52;;;;;;;3.03;2.80;;;4.10;99.90;;;;;;5058510;28;20274;-92
2023/01/16 07:43:18;;;;;;;2.30;2.10;;;4.10;99.90;;;;;;5026794;28;20284;-91
2023/01/16 07:45:46;;;;;;;1.73;1.50;;;4.20;99.90;;;;;;5028973;28;20240;-92
2023/01/16 07:48:11;;;;;;;2.80;2.33;;;4.20;99.90;;;;;;5045135;28;20224;-92
2023/01/16 07:50:37;;;;;;;2.47;1.63;;;4.10;99.90;;;;;;5040112;28;20214;-91
2023/01/16 07:53:03;;;;;;;1.47;1.37;;;4.10;99.90;;;;;;5056369;28;20213;-92
2023/01/16 07:55:29;;;;;;;1.47;1.33;;;4.10;99.90;;;;;;5061634;28;20170;-88
2023/01/16 07:57:54;;;;;;;1.67;1.53;;;4.10;99.90;;;;;;5060593;28;20180;-91
2023/01/16 08:00:20;;;;;;;2.63;1.97;;;4.10;99.90;;;;;;5056548;28;20308;-92
2023/01/16 08:02:46;;;;;;;3.03;2.83;;;4.10;99.90;;;;;;5025320;28;20225;-92
2023/01/16 08:05:12;;;;;;;1.33;1.33;;;4.10;99.90;;;;;;5057695;28;20714;-92
2023/01/16 08:07:38;;;;;;;1.20;1.10;;;4.10;99.90;;;;;;5060410;28;20177;-91
2023/01/16 08:10:04;;;;;;;1.70;1.60;;;4.10;99.90;;;;;;5039893;28;20182;-91
2023/01/16 08:12:30;;;;;;;2.27;2.13;;;4.10;99.90;;;;;;5056861;28;20678;-91
2023/01/16 08:14:56;;;;;;;0.87;0.87;;;4.10;99.90;;;;;;5046930;28;20217;-94
2023/01/16 08:17:22;;;;;;;1.00;0.97;;;4.00;99.90;;;;;;5057800;28;20224;-92
2023/01/16 08:19:47;;;;;;;4.03;1.27;;;4.00;99.90;;;;;;5025841;28;20292;-92
2023/01/16 08:22:13;;;;;;;1.93;1.83;;;4.10;99.90;;;;;;5043862;28;20235;-92
2023/01/16 08:24:39;;;;;;;1.77;1.67;;;4.10;99.90;;;;;;5044382;28;20313;-93
2023/01/16 08:27:05;;;;;;;2.07;2.00;;;4.10;99.90;;;;;;5033922;28;20213;-93
2023/01/16 08:29:30;;;;;;;1.10;1.10;;;4.10;99.90;;;;;;5041896;28;20751;-92
2023/01/16 08:31:56;;;;;;;0.80;0.80;;;4.10;99.90;;;;;;5059197;28;20270;-92
2023/01/16 08:34:22;;;;;;;2.63;1.73;;;4.20;99.90;;;;;;5043102;28;20284;-92
2023/01/16 08:36:48;;;;;;;6.30;3.53;;;4.20;99.90;;;;;;5054725;28;20222;-93
2023/01/16 08:39:14;;;;;;;2.00;0.83;;;4.20;99.90;;;;;;5057882;28;20264;-91
2023/01/16 08:52:44;;;;;;;0.73;0.73;;;4.30;99.90;;;;;;5064498;28;20404;-91
2023/01/16 08:55:10;;;;;;;1.53;1.53;;;4.30;99.90;;;;;;5067283;28;20193;-93
2023/01/16 08:57:36;;;;;;;1.23;0.70;;;4.30;99.90;;;;;;5053817;28;20206;-94
2023/01/16 09:00:04;;;;;;;0.40;0.40;;;4.30;99.90;;;;;;5057470;28;20209;-90
2023/01/16 09:02:34;;;;;;;0.67;0.57;;;4.40;99.90;;;;;;5040187;28;20322;-90
2023/01/16 09:05:00;;;;;;;0.67;0.67;;;4.40;99.90;;;;;;5058610;28;20216;-91
2023/01/16 09:07:25;;;;;;;0.67;0.67;;;4.40;99.90;;;;;;5044205;28;20185;-91
2023/01/16 09:09:51;;;;;;;0.50;0.50;;;4.40;99.90;;;;;;5056173;28;20670;-88
2023/01/16 09:15:02;;;;;;;1.53;0.80;;;4.40;99.90;;;;;;5051871;28;20762;-90
2023/01/16 09:17:28;;;;;;;0.50;0.50;;;4.40;99.90;;;;;;5051802;28;20228;-90
2023/01/16 09:19:54;;;;;;;0.73;0.73;;;4.50;99.90;;;;;;5043384;28;20210;-93
2023/01/16 09:22:20;;;;;;;0.50;0.50;;;4.50;99.90;;;;;;5038018;28;20209;-90
2023/01/16 09:24:46;;;;;;;0.80;0.80;;;4.50;99.90;;;;;;5032455;28;20229;-91
2023/01/16 09:27:15;;;;;;;1.33;1.33;;;4.50;99.90;;;;;;5048534;28;20957;-90
2023/01/16 09:29:41;;;;;;;0.77;0.77;;;4.50;99.90;;;;;;5040167;28;20224;-91
2023/01/16 09:32:08;;;;;;;0.70;0.70;;;4.60;99.90;;;;;;5053563;28;20185;-92
2023/01/16 09:34:35;;;;;;;1.30;1.30;;;4.60;99.90;;;;;;5053578;28;20303;-91
2023/01/16 09:37:01;;;;;;;1.80;0.87;;;4.60;99.90;;;;;;5052487;28;20262;-93
2023/01/16 09:39:28;;;;;;;0.40;0.40;;;4.70;99.90;;;;;;5037224;28;20213;-91
2023/01/16 09:45:08;;;;;;;1.90;1.70;;;4.70;99.90;;;;;;5054376;28;20234;-90
2023/01/16 09:47:35;;;;;;;1.07;1.07;;;4.70;99.90;;;;;;5050708;28;20238;-92
2023/01/16 09:50:10;;;;;;;0.67;0.67;;;4.70;99.90;;;;;;5045174;28;20185;-92
2023/01/16 09:58:37;;;;;;;0.30;0.30;;;4.80;99.90;;;;;;5052420;28;20222;-91
2023/01/16 10:01:20;;;;;;;1.33;1.13;;;4.80;99.90;;;;;;5051089;28;20234;-91
2023/01/16 10:03:46;;;;;;;0.40;0.40;;;4.80;99.90;;;;;;5054225;28;20212;-89
2023/01/16 10:06:29;;;;;;;1.37;1.27;;;4.80;99.90;;;;;;5036861;28;20697;-91
2023/01/16 10:09:06;;;;;;;0.50;0.50;;;4.80;99.90;;;;;;5054432;28;20238;-92
2023/01/16 10:11:40;;;;;;;1.53;0.90;;;4.80;99.90;;;;;;5053808;28;20638;-90
2023/01/16 10:14:21;;;;;;;0.47;0.47;;;4.80;99.90;;;;;;5050131;28;20183;-90
2023/01/16 10:16:46;;;;;;;1.97;0.87;;;4.80;99.90;;;;;;5049971;28;20198;-91
2023/01/16 10:19:19;;;;;;;0.33;0.33;;;4.80;99.90;;;;;;5049608;28;20226;-92
2023/01/16 10:22:10;;;;;;;2.60;0.70;;;4.80;99.90;;;;;;5051342;28;20533;-87
2023/01/16 10:24:50;;;;;;;0.57;0.57;;;4.80;99.90;;;;;;5038221;28;20224;-93
2023/01/16 10:27:28;;;;;;;0.87;0.87;;;4.80;99.90;;;;;;5050429;28;20777;-89
2023/01/16 10:30:13;;;;;;;0.73;0.73;;;4.80;99.90;;;;;;5051747;28;20270;-90
2023/01/16 10:32:57;;;;;;;7.30;1.50;;;4.80;99.90;;;;;;5050035;28;20250;-93
2023/01/16 10:35:43;;;;;;;1.10;1.00;;;4.80;99.90;;;;;;5051747;28;20425;-92
2023/01/16 10:38:45;;;;;;;1.23;1.23;;;4.90;99.90;;;;;;5049032;28;20182;-91
2023/01/16 10:50:19;;;;;;;0.30;0.30;;;4.90;99.90;;;;;;5047757;28;20184;-90
2023/01/16 10:52:47;;;;;;;1.63;1.53;;;4.90;99.90;;;;;;5049536;28;20272;-91
2023/01/16 10:55:13;;;;;;;2.00;1.83;;;4.80;99.90;;;;;;5053726;28;20248;-89
2023/01/16 10:57:46;;;;;;;1.00;1.00;;;4.80;99.90;;;;;;5051183;28;20209;-92
2023/01/16 11:00:39;;;;;;;0.33;0.33;;;4.80;99.90;;;;;;5051974;28;20304;-89
2023/01/16 11:03:18;;;;;;;0.97;0.97;;;4.70;99.90;;;;;;5053563;28;20963;-89
2023/01/16 11:05:44;;;;;;;0.33;0.33;;;4.70;99.90;;;;;;5048449;28;20214;-90
2023/01/16 11:08:15;;;;;;;1.50;1.40;;;4.60;99.90;;;;;;5047414;28;21092;-90
2023/01/16 11:10:46;;;;;;;0.77;0.77;;;4.70;99.90;;;;;;5056378;28;20190;-91
2023/01/16 11:19:17;;;;;;;0.30;0.30;;;4.60;99.90;;;;;;5049990;28;20230;-89
2023/01/16 11:22:00;;;;;;;0.87;0.87;;;4.50;99.90;;;;;;5047668;28;20229;-89
2023/01/16 11:24:35;;;;;;;0.30;0.30;;;4.50;99.90;;;;;;5054111;28;20213;-90
2023/01/16 11:27:05;;;;;;;5.27;0.93;;;4.40;99.90;;;;;;5050315;28;20236;-89
2023/01/16 11:29:38;;;;;;;0.20;0.20;;;4.40;99.90;;;;;;5056454;28;20788;-89
2023/01/16 11:32:08;;;;;;;0.50;0.50;;;4.40;99.90;;;;;;5051569;28;20196;-88
2023/01/16 11:34:38;;;;;;;0.57;0.57;;;4.40;99.90;;;;;;5058105;28;20197;-89
2023/01/16 11:37:07;;;;;;;0.97;0.80;;;4.50;99.90;;;;;;5055932;28;20233;-87
2023/01/16 11:39:35;;;;;;;0.27;0.27;;;4.40;99.90;;;;;;5057686;28;20226;-88
2023/01/16 11:47:44;;;;;;;0.30;0.30;;;4.30;99.90;;;;;;5055060;28;20853;-89
2023/01/16 11:50:33;;;;;;;0.30;0.30;;;4.30;99.90;;;;;;5054532;28;20173;-89
2023/01/16 11:52:59;;;;;;;0.40;0.40;;;4.30;99.90;;;;;;5057085;28;20597;-86
2023/01/16 11:55:52;;;;;;;0.37;0.37;;;4.00;99.90;;;;;;5057033;28;20229;-88
2023/01/16 11:58:38;;;;;;;0.30;0.30;;;3.90;99.90;;;;;;5056162;28;20221;-88
2023/01/16 12:02:15;;;;;;;0.30;0.30;;;3.90;99.90;;;;;;5002386;28;20569;-86
2023/01/16 12:04:22;;;;;;;0.30;0.30;;;4.00;99.90;;;;;;5057307;28;20736;-88
2023/01/16 12:07:20;;;;;;;0.47;0.47;;;4.00;99.90;;;;;;5054437;28;20240;-88
2023/01/16 12:10:04;;;;;;;0.30;0.30;;;3.90;99.90;;;;;;5050115;28;20214;-88
2023/01/16 12:16:12;;;;;;;1.17;1.13;;;3.90;99.90;;;;;;5056439;28;20344;-90
2023/01/16 12:19:20;;;;;;;0.53;0.53;;;3.90;99.90;;;;;;5055085;28;20229;-88
2023/01/16 12:21:57;;;;;;;0.50;0.50;;;3.90;99.90;;;;;;5021857;28;20237;-89
2023/01/16 12:24:49;;;;;;;0.30;0.30;;;3.80;99.90;;;;;;5054314;28;20209;-87
2023/01/16 12:27:39;;;;;;;0.20;0.20;;;3.80;99.90;;;;;;5051856;28;21181;-87
2023/01/16 12:31:00;;;;;;;;;;;;;;;;;;;;;
2023/01/16 12:33:40;;;;;;;0.40;0.40;;;3.70;99.90;;;;;;5053454;28;20210;-88
2023/01/16 12:36:34;;;;;;;0.30;0.30;;;3.70;99.90;;;;;;5052931;28;20251;-90
2023/01/16 12:39:26;;;;;;;0.30;0.30;;;3.60;99.90;;;;;;5052413;28;20686;-88
2023/01/16 12:45:54;;;;;;;0.30;0.30;;;3.50;99.90;;;;;;5049876;28;20262;-87
2023/01/16 12:48:38;;;;;;;0.40;0.40;;;3.50;99.90;;;;;;5051337;28;20545;-90
2023/01/16 12:51:19;;;;;;;0.30;0.30;;;3.50;99.90;;;;;;5050593;28;20226;-90
2023/01/16 12:54:09;;;;;;;0.50;0.50;;;3.60;99.90;;;;;;5054862;28;20220;-90
2023/01/16 12:57:08;;;;;;;0.30;0.30;;;3.50;99.90;;;;;;5054156;28;20304;-90
2023/01/16 12:59:44;;;;;;;0.40;0.40;;;3.50;99.90;;;;;;5052532;28;20231;-90
2023/01/16 13:02:12;;;;;;;0.30;0.30;;;3.50;99.90;;;;;;5059053;28;20223;-90
2023/01/16 13:04:43;;;;;;;0.20;0.20;;;3.60;99.90;;;;;;5055129;28;20197;-91
2023/01/16 13:07:15;;;;;;;1.03;0.70;;;3.60;99.90;;;;;;5052222;28;20224;-90
2023/01/16 13:13:20;;;;;;;0.30;0.30;;;3.60;99.90;;;;;;5052095;28;20206;-89
2023/01/16 13:15:31;;;;;;;0.23;0.23;;;3.60;99.90;;;;;;5053785;28;20210;-90
2023/01/16 13:18:08;;;;;;;0.40;0.40;;;3.70;99.90;;;;;;5052913;28;20303;-88
2023/01/16 13:20:34;;;;;;;0.50;0.50;;;3.60;99.90;;;;;;5053187;28;20225;-89
2023/01/16 13:23:08;;;;;;;1.77;1.67;;;3.70;99.90;;;;;;5058259;28;20202;-90
2023/01/16 13:25:47;;;;;;;0.60;0.60;;;3.70;99.90;;;;;;5068426;28;20299;-88
2023/01/16 13:28:32;;;;;;;0.40;0.40;;;3.80;99.90;;;;;;5054064;28;20319;-90
2023/01/16 13:31:04;;;;;;;0.50;0.50;;;3.80;99.90;;;;;;5052290;28;20244;-88
2023/01/16 13:33:34;;;;;;;0.30;0.30;;;3.80;99.90;;;;;;5050495;28;20247;-87
2023/01/16 13:36:15;;;;;;;0.60;0.60;;;3.90;99.90;;;;;;5051508;28;20647;-87
2023/01/16 13:38:40;;;;;;;0.30;0.30;;;3.90;99.90;;;;;;5051149;28;20216;-88
2023/01/16 13:41:35;;;;;;;0.43;0.43;;;3.90;99.90;;;;;;5048711;28;20204;-87
2023/01/16 13:47:13;;;;;;;0.50;0.50;;;4.00;99.90;;;;;;5052938;28;20497;-89
2023/01/16 13:49:40;;;;;;;0.60;0.60;;;4.00;99.90;;;;;;5051932;28;20297;-87
2023/01/16 13:52:19;;;;;;;0.30;0.30;;;4.10;99.90;;;;;;5049024;28;20319;-88
2023/01/16 13:54:47;;;;;;;0.40;0.40;;;4.10;99.90;;;;;;5049726;28;20292;-89
2023/01/16 13:57:22;;;;;;;1.50;0.83;;;4.10;99.90;;;;;;5051719;28;20205;-88
2023/01/16 14:00:00;;;;;;;0.73;0.67;;;4.20;99.90;;;;;;5048708;28;20271;-87
2023/01/16 14:02:59;;;;;;;0.80;0.80;;;4.20;99.90;;;;;;5052287;28;20308;-88
2023/01/16 14:05:37;;;;;;;0.40;0.40;;;4.30;99.90;;;;;;5052166;28;20224;-91
2023/01/16 14:11:14;;;;;;;0.30;0.30;;;4.30;99.90;;;;;;5050718;28;20322;-91
2023/01/16 14:13:40;;;;;;;0.40;0.40;;;4.40;99.90;;;;;;5053242;28;20653;-89
2023/01/16 14:16:30;;;;;;;0.40;0.40;;;4.40;99.90;;;;;;5052086;28;20222;-91
2023/01/16 14:18:55;;;;;;;1.03;1.03;;;4.40;99.90;;;;;;5054315;28;20275;-88
2023/01/16 14:21:40;;;;;;;0.50;0.50;;;4.40;99.90;;;;;;5048855;28;20696;-89
2023/01/16 14:24:18;;;;;;;0.40;0.40;;;4.50;99.90;;;;;;5049895;28;20268;-88
2023/01/16 14:26:57;;;;;;;0.67;0.67;;;4.50;99.90;;;;;;5050820;28;20228;-89
2023/01/16 14:29:51;;;;;;;0.30;0.30;;;4.50;99.90;;;;;;5048854;28;20193;-89
2023/01/16 14:32:19;;;;;;;1.20;1.17;;;4.50;99.90;;;;;;5069432;28;20642;-89
2023/01/16 14:34:59;;;;;;;0.70;0.70;;;4.60;99.90;;;;;;5053350;28;20193;-88
2023/01/16 14:37:26;;;;;;;2.60;1.07;;;4.60;99.90;;;;;;5051424;28;20697;-89